createdAt,value
2016-08-23T00:00:04.328Z,59.15
2016-08-23T00:00:50.193Z,59.10
2016-08-23T00:01:46.900Z,59.21
2016-08-23T00:02:46.896Z,59.50
2016-08-23T00:03:44.952Z,59.31
2016-08-23T00:04:50.151Z,59.25
2016-08-23T00:05:51.105Z,59.42
2016-08-23T00:06:55.573Z,58.92
2016-08-23T00:07:40.427Z,58.92
2016-08-23T00:08:48.960Z,59.20
2016-08-23T00:09:40.613Z,58.95
2016-08-23T00:10:55.421Z,59.21
2016-08-23T00:11:51.279Z,59.24
2016-08-23T00:12:49.359Z,59.48
2016-08-23T00:13:58.621Z,59.04
2016-08-23T00:14:49.735Z,58.91
2016-08-23T00:15:42.603Z,58.97
2016-08-23T00:16:50.438Z,59.48
2016-08-23T00:17:35.045Z,58.85
2016-08-23T00:18:50.018Z,59.01
2016-08-23T00:19:49.182Z,59.18
2016-08-23T00:20:45.796Z,58.98
2016-08-23T00:21:46.146Z,59.37
2016-08-23T00:22:53.701Z,58.96
2016-08-23T00:23:48.458Z,59.01
2016-08-23T00:24:42.034Z,58.97
2016-08-23T00:25:44.969Z,59.31
2016-08-23T00:26:50.306Z,59.38
2016-08-23T00:27:36.204Z,59.30
2016-08-23T00:28:48.948Z,58.95
2016-08-23T00:29:48.436Z,59.42
2016-08-23T00:30:49.527Z,59.47
2016-08-23T00:31:44.915Z,59.30
2016-08-23T00:32:54.783Z,58.95
2016-08-23T00:33:39.827Z,58.92
2016-08-23T00:34:49.875Z,58.71
2016-08-23T00:35:52.950Z,59.24
2016-08-23T00:36:45.130Z,59.11
2016-08-23T00:37:44.772Z,58.88
2016-08-23T00:38:51.374Z,58.86
2016-08-23T00:39:40.012Z,58.66
2016-08-23T00:40:59.456Z,59.19
2016-08-23T00:41:39.051Z,59.28
2016-08-23T00:42:49.252Z,59.02
2016-08-23T00:43:34.978Z,59.02
2016-08-23T00:44:50.285Z,58.98
2016-08-23T00:45:58.934Z,59.09
2016-08-23T00:46:43.010Z,59.11
2016-08-23T00:47:48.751Z,58.80
2016-08-23T00:48:54.060Z,58.89
2016-08-23T00:49:48.991Z,58.89
2016-08-23T00:50:54.092Z,58.68
2016-08-23T00:51:57.071Z,58.85
2016-08-23T00:52:43.529Z,59.02
2016-08-23T00:53:50.932Z,58.69
2016-08-23T00:54:49.958Z,58.67
2016-08-23T00:55:45.259Z,58.67
2016-08-23T00:56:46.116Z,58.73
2016-08-23T00:57:48.818Z,58.82
2016-08-23T00:58:51.687Z,59.21
2016-08-23T00:59:49.360Z,58.83
2016-08-23T01:00:38.487Z,58.69
2016-08-23T01:01:54.696Z,58.73
2016-08-23T01:02:35.907Z,59.02
2016-08-23T01:03:56.429Z,58.80
2016-08-23T01:04:55.668Z,58.02
2016-08-23T01:05:41.077Z,58.81
2016-08-23T01:06:45.888Z,58.57
2016-08-23T01:07:52.339Z,58.87
2016-08-23T01:08:42.894Z,59.21
2016-08-23T01:10:00.958Z,58.95
2016-08-23T01:10:44.869Z,58.98
2016-08-23T01:11:51.256Z,59.26
2016-08-23T01:12:54.778Z,58.96
2016-08-23T01:13:51.845Z,59.17
2016-08-23T01:14:51.636Z,59.16
2016-08-23T01:15:51.193Z,59.21
2016-08-23T01:16:41.542Z,59.04
2016-08-23T01:17:51.358Z,58.90
2016-08-23T01:18:55.119Z,58.99
2016-08-23T01:19:48.870Z,58.81
2016-08-23T01:20:44.400Z,58.73
2016-08-23T01:21:56.669Z,58.87
2016-08-23T01:22:48.990Z,58.62
2016-08-23T01:23:42.957Z,59.12
2016-08-23T01:24:51.237Z,58.78
2016-08-23T01:25:49.217Z,58.86
2016-08-23T01:26:47.156Z,58.89
2016-08-23T01:27:48.756Z,58.85
2016-08-23T01:28:35.410Z,59.35
2016-08-23T01:29:48.227Z,59.42
2016-08-23T01:30:57.254Z,59.34
2016-08-23T01:32:01.359Z,57.91
2016-08-23T01:32:52.324Z,59.40
2016-08-23T01:33:59.973Z,58.68
2016-08-23T01:35:03.145Z,58.70
2016-08-23T01:35:49.518Z,58.94
2016-08-23T01:36:44.740Z,59.29
2016-08-23T01:37:47.342Z,59.01
2016-08-23T01:38:44.268Z,58.67
2016-08-23T01:39:51.094Z,58.58
2016-08-23T01:40:43.662Z,58.61
2016-08-23T01:41:46.042Z,58.55
2016-08-23T01:43:00.865Z,58.79
2016-08-23T01:43:42.665Z,58.56
2016-08-23T01:44:47.017Z,58.61
2016-08-23T01:45:38.886Z,58.48
2016-08-23T01:46:48.225Z,58.61
2016-08-23T01:47:55.759Z,58.43
2016-08-23T01:48:50.210Z,58.66
2016-08-23T01:49:51.615Z,58.55
2016-08-23T01:50:49.356Z,58.72
2016-08-23T01:52:00.682Z,58.06
2016-08-23T01:52:50.383Z,58.85
2016-08-23T01:53:45.740Z,58.93
2016-08-23T01:54:53.905Z,59.03
2016-08-23T01:55:51.521Z,58.84
2016-08-23T01:56:41.593Z,58.77
2016-08-23T01:57:46.099Z,58.65
2016-08-23T01:58:44.573Z,59.14
2016-08-23T01:59:51.196Z,59.02
2016-08-23T02:00:55.272Z,58.98
2016-08-23T02:01:59.487Z,58.83
2016-08-23T02:02:45.601Z,59.23
2016-08-23T02:03:50.979Z,58.87
2016-08-23T02:04:42.654Z,58.99
2016-08-23T02:05:55.054Z,58.51
2016-08-23T02:06:44.567Z,58.97
2016-08-23T02:07:36.679Z,58.68
2016-08-23T02:09:05.011Z,58.92
2016-08-23T02:09:45.472Z,59.04
2016-08-23T02:10:43.682Z,59.08
2016-08-23T02:11:46.128Z,58.86
2016-08-23T02:12:39.773Z,58.66
2016-08-23T02:13:45.576Z,59.01
2016-08-23T02:14:42.664Z,58.75
2016-08-23T02:15:45.053Z,58.99
2016-08-23T02:16:45.559Z,58.69
2016-08-23T02:17:50.554Z,58.95
2016-08-23T02:18:44.382Z,58.66
2016-08-23T02:19:46.220Z,58.56
2016-08-23T02:20:45.933Z,58.71
2016-08-23T02:21:48.525Z,58.94
2016-08-23T02:22:43.860Z,59.23
2016-08-23T02:23:58.255Z,59.08
2016-08-23T02:24:57.979Z,58.62
2016-08-23T02:25:49.895Z,58.59
2016-08-23T02:26:39.099Z,58.40
2016-08-23T02:27:48.630Z,57.96
2016-08-23T02:28:44.887Z,58.32
2016-08-23T02:30:03.788Z,58.27
2016-08-23T02:30:44.137Z,58.32
2016-08-23T02:31:55.877Z,58.41
2016-08-23T02:32:46.227Z,58.90
2016-08-23T02:33:51.299Z,58.47
2016-08-23T02:34:41.288Z,58.56
2016-08-23T02:35:58.403Z,58.42
2016-08-23T02:37:05.333Z,58.37
2016-08-23T02:37:45.529Z,58.72
2016-08-23T02:38:46.828Z,58.45
2016-08-23T02:39:44.899Z,58.60
2016-08-23T02:40:46.342Z,58.85
2016-08-23T02:41:54.887Z,58.75
2016-08-23T02:42:48.384Z,58.40
2016-08-23T02:43:48.629Z,58.90
2016-08-23T02:45:01.057Z,58.50
2016-08-23T02:45:40.495Z,58.66
2016-08-23T02:46:44.451Z,58.36
2016-08-23T02:47:53.863Z,58.41
2016-08-23T02:48:53.601Z,58.66
2016-08-23T02:49:53.521Z,58.23
2016-08-23T02:50:49.079Z,58.82
2016-08-23T02:51:39.575Z,58.43
2016-08-23T02:52:59.605Z,58.26
2016-08-23T02:53:53.923Z,58.24
2016-08-23T02:54:49.386Z,58.70
2016-08-23T02:55:44.845Z,58.59
2016-08-23T02:56:48.509Z,58.36
2016-08-23T02:57:52.845Z,58.45
2016-08-23T02:58:47.406Z,58.34
2016-08-23T02:59:41.156Z,58.15
2016-08-23T03:00:49.190Z,58.30
2016-08-23T03:01:53.281Z,58.60
2016-08-23T03:02:47.392Z,58.29
2016-08-23T03:04:06.736Z,59.00
2016-08-23T03:04:48.526Z,58.16
2016-08-23T03:05:45.373Z,58.10
2016-08-23T03:06:57.786Z,58.07
2016-08-23T03:07:44.949Z,58.11
2016-08-23T03:08:49.406Z,58.87
2016-08-23T03:09:44.485Z,58.12
2016-08-23T03:10:49.862Z,58.20
2016-08-23T03:11:47.345Z,58.26
2016-08-23T03:12:44.384Z,58.19
2016-08-23T03:13:39.536Z,58.25
2016-08-23T03:14:47.681Z,58.11
2016-08-23T03:15:51.682Z,57.99
2016-08-23T03:16:50.684Z,58.48
2016-08-23T03:17:42.068Z,58.00
2016-08-23T03:18:49.314Z,58.01
2016-08-23T03:19:50.657Z,58.42
2016-08-23T03:20:41.648Z,58.09
2016-08-23T03:21:50.915Z,57.90
2016-08-23T03:22:49.865Z,58.14
2016-08-23T03:23:50.721Z,58.04
2016-08-23T03:24:47.374Z,58.96
2016-08-23T03:25:42.142Z,58.53
2016-08-23T03:26:49.242Z,58.42
2016-08-23T03:27:45.422Z,58.15
2016-08-23T03:28:50.725Z,58.26
2016-08-23T03:29:57.950Z,58.52
2016-08-23T03:30:53.921Z,58.14
2016-08-23T03:31:39.318Z,58.13
2016-08-23T03:32:51.368Z,58.44
2016-08-23T03:33:54.160Z,58.29
2016-08-23T03:34:57.553Z,58.20
2016-08-23T03:35:39.808Z,58.14
2016-08-23T03:36:54.742Z,58.03
2016-08-23T03:37:46.889Z,58.40
2016-08-23T03:38:45.008Z,58.20
2016-08-23T03:39:44.326Z,58.22
2016-08-23T03:40:49.829Z,58.41
2016-08-23T03:41:49.224Z,58.13
2016-08-23T03:42:49.377Z,58.72
2016-08-23T03:43:51.685Z,58.18
2016-08-23T03:44:42.930Z,58.07
2016-08-23T03:45:50.334Z,58.73
2016-08-23T03:46:52.683Z,58.07
2016-08-23T03:47:49.008Z,58.45
2016-08-23T03:48:49.345Z,57.93
2016-08-23T03:49:46.086Z,58.09
2016-08-23T03:50:54.927Z,58.01
2016-08-23T03:51:55.913Z,58.45
2016-08-23T03:52:45.814Z,58.90
2016-08-23T03:54:05.013Z,58.64
2016-08-23T03:54:46.245Z,58.18
2016-08-23T03:55:48.947Z,58.09
2016-08-23T03:56:42.809Z,58.77
2016-08-23T03:57:46.272Z,58.55
2016-08-23T03:58:44.691Z,58.61
2016-08-23T03:59:55.730Z,58.48
2016-08-23T04:00:47.364Z,58.79
2016-08-23T04:01:45.373Z,58.24
2016-08-23T04:02:44.583Z,58.00
2016-08-23T04:04:00.717Z,58.61
2016-08-23T04:04:39.378Z,58.44
2016-08-23T04:05:50.052Z,58.62
2016-08-23T04:06:50.379Z,58.21
2016-08-23T04:07:55.426Z,58.49
2016-08-23T04:08:51.991Z,58.17
2016-08-23T04:09:50.565Z,58.25
2016-08-23T04:10:53.552Z,58.41
2016-08-23T04:11:50.464Z,58.06
2016-08-23T04:12:51.089Z,58.54
2016-08-23T04:13:46.077Z,58.36
2016-08-23T04:14:53.205Z,58.27
2016-08-23T04:15:43.760Z,58.18
2016-08-23T04:16:45.338Z,58.12
2016-08-23T04:17:57.052Z,58.29
2016-08-23T04:18:37.821Z,58.48
2016-08-23T04:19:52.253Z,58.40
2016-08-23T04:20:41.752Z,58.35
2016-08-23T04:21:40.494Z,57.03
2016-08-23T04:22:41.052Z,56.90
2016-08-23T04:23:52.047Z,57.25
2016-08-23T04:24:49.209Z,57.57
2016-08-23T04:25:53.954Z,57.61
2016-08-23T04:26:51.421Z,57.86
2016-08-23T04:27:45.608Z,58.23
2016-08-23T04:28:46.202Z,57.94
2016-08-23T04:29:52.836Z,58.34
2016-08-23T04:30:40.448Z,58.34
2016-08-23T04:31:49.080Z,57.95
2016-08-23T04:32:55.926Z,58.27
2016-08-23T04:33:48.096Z,58.20
2016-08-23T04:34:52.640Z,58.13
2016-08-23T04:35:51.020Z,58.56
2016-08-23T04:36:47.308Z,58.54
2016-08-23T04:37:58.737Z,58.43
2016-08-23T04:38:53.793Z,58.32
2016-08-23T04:39:56.199Z,58.22
2016-08-23T04:40:47.519Z,58.07
2016-08-23T04:41:45.617Z,57.87
2016-08-23T04:43:01.952Z,58.36
2016-08-23T04:43:45.821Z,58.45
2016-08-23T04:44:47.335Z,58.67
2016-08-23T04:45:51.290Z,57.93
2016-08-23T04:46:57.692Z,58.67
2016-08-23T04:47:50.419Z,58.21
2016-08-23T04:48:45.713Z,57.71
2016-08-23T04:49:50.544Z,58.45
2016-08-23T04:50:47.100Z,58.38
2016-08-23T04:51:41.865Z,58.15
2016-08-23T04:52:57.462Z,58.52
2016-08-23T04:53:55.224Z,58.37
2016-08-23T04:54:44.103Z,58.20
2016-08-23T04:55:55.186Z,58.21
2016-08-23T04:56:49.070Z,58.84
2016-08-23T04:57:44.492Z,58.11
2016-08-23T04:58:45.328Z,57.92
2016-08-23T04:59:51.639Z,58.29
2016-08-23T05:00:58.207Z,58.06
2016-08-23T05:01:50.899Z,57.75
2016-08-23T05:02:54.300Z,57.99
2016-08-23T05:03:51.833Z,58.25
2016-08-23T05:04:44.414Z,58.03
2016-08-23T05:05:38.397Z,58.20
2016-08-23T05:06:40.112Z,58.08
2016-08-23T05:07:49.870Z,58.02
2016-08-23T05:08:51.277Z,58.26
2016-08-23T05:09:45.057Z,57.93
2016-08-23T05:10:45.799Z,57.65
2016-08-23T05:11:50.860Z,57.76
2016-08-23T05:12:45.660Z,57.81
2016-08-23T05:13:44.640Z,57.75
2016-08-23T05:14:48.364Z,58.46
2016-08-23T05:15:59.330Z,58.05
2016-08-23T05:16:45.104Z,57.89
2016-08-23T05:17:55.943Z,58.04
2016-08-23T05:18:40.057Z,57.87
2016-08-23T05:19:49.820Z,58.38
2016-08-23T05:21:00.121Z,58.11
2016-08-23T05:21:45.653Z,57.95
2016-08-23T05:22:46.028Z,57.95
2016-08-23T05:23:50.282Z,58.10
2016-08-23T05:24:50.313Z,57.79
2016-08-23T05:25:40.744Z,58.19
2016-08-23T05:26:52.170Z,58.32
2016-08-23T05:28:06.267Z,57.86
2016-08-23T05:28:46.215Z,57.76
2016-08-23T05:29:36.750Z,57.93
2016-08-23T05:30:44.578Z,58.50
2016-08-23T05:31:51.138Z,58.45
2016-08-23T05:32:56.055Z,57.94
2016-08-23T05:33:48.848Z,57.81
2016-08-23T05:34:46.459Z,58.11
2016-08-23T05:35:51.918Z,58.12
2016-08-23T05:36:43.347Z,57.86
2016-08-23T05:37:43.099Z,57.65
2016-08-23T05:38:39.966Z,57.68
2016-08-23T05:39:47.681Z,57.74
2016-08-23T05:40:59.784Z,57.81
2016-08-23T05:41:45.427Z,57.71
2016-08-23T05:42:44.458Z,57.85
2016-08-23T05:43:50.400Z,57.96
2016-08-23T05:44:41.139Z,57.88
2016-08-23T05:45:45.640Z,57.91
2016-08-23T05:46:47.092Z,57.91
2016-08-23T05:47:49.310Z,57.76
2016-08-23T05:48:39.750Z,57.87
2016-08-23T05:49:52.850Z,58.17
2016-08-23T05:50:41.492Z,58.11
2016-08-23T05:51:52.636Z,57.90
2016-08-23T05:52:56.455Z,58.35
2016-08-23T05:53:54.723Z,58.20
2016-08-23T05:54:45.979Z,58.12
2016-08-23T05:55:54.885Z,57.96
2016-08-23T05:56:51.429Z,57.87
2016-08-23T05:57:49.242Z,57.91
2016-08-23T05:58:42.645Z,57.80
2016-08-23T05:59:44.205Z,57.96
2016-08-23T06:00:37.771Z,57.90
2016-08-23T06:01:47.516Z,57.90
2016-08-23T06:02:42.305Z,57.84
2016-08-23T06:03:55.329Z,57.88
2016-08-23T06:04:49.082Z,57.96
2016-08-23T06:05:50.182Z,58.14
2016-08-23T06:06:51.358Z,57.97
2016-08-23T06:07:46.398Z,57.94
2016-08-23T06:08:51.185Z,57.96
2016-08-23T06:09:36.743Z,57.95
2016-08-23T06:10:50.496Z,58.04
2016-08-23T06:11:44.669Z,57.90
2016-08-23T06:12:50.213Z,58.00
2016-08-23T06:14:08.523Z,58.10
2016-08-23T06:14:55.205Z,58.41
2016-08-23T06:15:51.039Z,58.29
2016-08-23T06:16:50.348Z,58.24
2016-08-23T06:17:44.437Z,58.31
2016-08-23T06:18:51.892Z,58.09
2016-08-23T06:19:50.738Z,58.05
2016-08-23T06:20:50.804Z,58.00
2016-08-23T06:21:43.891Z,58.03
2016-08-23T06:22:56.346Z,58.17
2016-08-23T06:23:45.218Z,58.83
2016-08-23T06:24:59.740Z,58.66
2016-08-23T06:25:45.359Z,58.58
2016-08-23T06:26:53.426Z,58.98
2016-08-23T06:27:46.088Z,59.20
2016-08-23T06:28:53.478Z,59.21
2016-08-23T06:29:45.526Z,59.16
2016-08-23T06:30:41.730Z,59.13
2016-08-23T06:31:50.788Z,59.08
2016-08-23T06:32:49.803Z,59.08
2016-08-23T06:33:45.235Z,59.13
2016-08-23T06:34:48.197Z,59.24
2016-08-23T06:35:44.899Z,59.13
2016-08-23T06:36:40.145Z,59.14
2016-08-23T06:37:50.086Z,59.11
2016-08-23T06:38:42.529Z,59.13
2016-08-23T06:39:51.600Z,59.16
2016-08-23T06:40:45.848Z,59.20
2016-08-23T06:41:34.225Z,59.18
2016-08-23T06:42:27.229Z,59.21
2016-08-23T06:43:31.288Z,59.22
2016-08-23T06:44:29.987Z,59.24
2016-08-23T06:45:32.928Z,59.24
2016-08-23T06:46:28.926Z,59.29
2016-08-23T06:47:29.451Z,59.26
2016-08-23T06:48:28.081Z,59.28
2016-08-23T06:49:35.708Z,59.24
2016-08-23T06:50:52.584Z,59.31
2016-08-23T06:51:51.370Z,59.31
2016-08-23T06:53:03.923Z,59.37
2016-08-23T06:54:23.304Z,59.32
2016-08-23T06:54:53.667Z,59.35
2016-08-23T06:56:01.478Z,59.39
2016-08-23T06:56:51.529Z,59.41
2016-08-23T06:57:41.485Z,59.40
2016-08-23T06:58:45.398Z,59.38
2016-08-23T06:59:42.294Z,59.43
2016-08-23T07:00:47.669Z,59.43
2016-08-23T07:01:46.861Z,59.49
2016-08-23T07:02:20.836Z,59.48
2016-08-23T07:03:42.142Z,59.52
2016-08-23T07:04:38.663Z,59.61
2016-08-23T07:05:38.375Z,59.66
2016-08-23T07:06:37.872Z,59.67
2016-08-23T07:07:29.053Z,59.67
2016-08-23T07:08:36.944Z,59.72
2016-08-23T07:09:32.271Z,59.72
2016-08-23T07:10:31.773Z,59.60
2016-08-23T07:11:31.051Z,58.82
2016-08-23T07:12:25.067Z,58.64
2016-08-23T07:13:33.252Z,58.55
2016-08-23T07:14:21.284Z,58.56
2016-08-23T07:15:35.730Z,58.91
2016-08-23T07:16:43.570Z,59.56
2016-08-23T07:17:34.680Z,59.75
2016-08-23T07:18:32.679Z,59.82
2016-08-23T07:19:32.026Z,59.91
2016-08-23T07:20:30.695Z,59.93
2016-08-23T07:21:34.139Z,59.97
2016-08-23T07:22:40.012Z,59.98
2016-08-23T07:23:50.604Z,59.95
2016-08-23T07:24:51.292Z,60.02
2016-08-23T07:25:40.576Z,60.20
2016-08-23T07:26:51.547Z,60.33
2016-08-23T07:27:46.186Z,60.29
2016-08-23T07:28:57.253Z,60.23
2016-08-23T07:29:44.475Z,60.16
2016-08-23T07:30:39.023Z,59.20
2016-08-23T07:31:50.365Z,59.05
2016-08-23T07:32:54.985Z,57.90
2016-08-23T07:33:43.448Z,58.76
2016-08-23T07:34:46.059Z,59.50
2016-08-23T07:35:43.494Z,59.78
2016-08-23T07:36:52.279Z,59.94
2016-08-23T07:37:43.119Z,60.13
2016-08-23T07:38:39.823Z,60.27
2016-08-23T07:39:54.400Z,60.66
2016-08-23T07:40:59.993Z,60.76
2016-08-23T07:41:49.120Z,60.94
2016-08-23T07:42:47.140Z,61.04
2016-08-23T07:43:51.303Z,61.05
2016-08-23T07:44:52.156Z,61.05
2016-08-23T07:45:40.952Z,61.02
2016-08-23T07:46:53.174Z,61.07
2016-08-23T07:47:41.195Z,61.04
2016-08-23T07:48:59.402Z,60.99
2016-08-23T07:49:50.981Z,60.99
2016-08-23T07:50:44.939Z,60.97
2016-08-23T07:51:45.398Z,60.95
2016-08-23T07:52:47.880Z,60.88
2016-08-23T07:53:49.661Z,60.89
2016-08-23T07:54:50.841Z,60.86
2016-08-23T07:55:51.650Z,60.84
2016-08-23T07:56:50.426Z,60.79
2016-08-23T07:57:39.582Z,60.75
2016-08-23T07:58:41.097Z,60.73
2016-08-23T07:59:43.647Z,60.71
2016-08-23T08:00:45.706Z,60.69
2016-08-23T08:01:43.902Z,60.69
2016-08-23T08:02:28.296Z,60.65
2016-08-23T08:03:37.927Z,60.63
2016-08-23T08:04:43.445Z,60.63
2016-08-23T08:05:47.800Z,60.60
2016-08-23T08:06:44.773Z,60.56
2016-08-23T08:07:45.410Z,60.54
2016-08-23T08:08:46.489Z,60.51
2016-08-23T08:09:51.465Z,60.49
2016-08-23T08:10:46.486Z,60.49
2016-08-23T08:11:49.193Z,60.45
2016-08-23T08:12:44.516Z,60.44
2016-08-23T08:13:45.169Z,60.40
2016-08-23T08:14:49.101Z,60.39
2016-08-23T08:15:49.117Z,60.39
2016-08-23T08:16:49.718Z,60.39
2016-08-23T08:17:46.737Z,60.36
2016-08-23T08:18:42.645Z,60.33
2016-08-23T08:19:51.844Z,60.33
2016-08-23T08:20:52.568Z,60.30
2016-08-23T08:21:45.864Z,60.29
2016-08-23T08:22:39.941Z,60.34
2016-08-23T08:23:48.032Z,60.24
2016-08-23T08:24:44.162Z,60.24
2016-08-23T08:25:45.528Z,60.27
2016-08-23T08:26:49.860Z,60.23
2016-08-23T08:27:50.806Z,60.34
2016-08-23T08:28:46.185Z,60.09
2016-08-23T08:29:56.481Z,59.91
2016-08-23T08:30:53.273Z,58.84
2016-08-23T08:31:55.896Z,57.57
2016-08-23T08:32:51.565Z,57.04
2016-08-23T08:34:44.301Z,56.85
2016-08-23T08:35:56.894Z,57.26
2016-08-23T08:36:44.878Z,56.47
2016-08-23T08:37:42.157Z,55.77
2016-08-23T08:38:44.432Z,54.04
2016-08-23T08:39:55.327Z,54.28
2016-08-23T08:40:42.858Z,54.33
2016-08-23T08:41:50.943Z,54.05
2016-08-23T08:42:44.903Z,54.41
2016-08-23T08:43:47.190Z,55.27
2016-08-23T08:44:52.235Z,55.61
2016-08-23T08:45:50.868Z,55.35
2016-08-23T08:46:43.671Z,55.83
2016-08-23T08:47:45.242Z,56.20
2016-08-23T08:49:06.223Z,56.06
2016-08-23T08:49:46.279Z,55.71
2016-08-23T08:50:40.652Z,55.88
2016-08-23T08:51:58.970Z,55.22
2016-08-23T08:52:48.964Z,55.23
2016-08-23T08:54:47.897Z,55.05
2016-08-23T08:54:53.680Z,55.41
2016-08-23T08:55:56.912Z,55.40
2016-08-23T08:56:51.535Z,54.61
2016-08-23T08:57:57.725Z,55.05
2016-08-23T08:58:38.223Z,54.52
2016-08-23T08:59:49.267Z,54.82
2016-08-23T09:00:51.334Z,55.51
2016-08-23T09:02:24.441Z,55.53
2016-08-23T09:02:47.168Z,55.60
2016-08-23T09:03:51.377Z,55.71
2016-08-23T09:04:53.667Z,55.73
2016-08-23T09:05:31.825Z,55.92
2016-08-23T09:06:35.942Z,55.85
2016-08-23T09:07:35.591Z,55.38
2016-08-23T09:08:31.743Z,55.35
2016-08-23T09:09:38.959Z,55.12
2016-08-23T09:11:15.392Z,55.01
2016-08-23T09:12:49.656Z,54.32
2016-08-23T09:12:57.843Z,54.23
2016-08-23T09:13:58.268Z,54.38
2016-08-23T09:15:58.028Z,54.50
2016-08-23T09:16:57.167Z,53.45
2016-08-23T09:17:39.549Z,53.08
2016-08-23T09:18:51.388Z,53.09
2016-08-23T09:19:49.659Z,53.83
2016-08-23T09:21:03.670Z,54.42
2016-08-23T09:21:39.467Z,54.85
2016-08-23T09:22:50.199Z,55.12
2016-08-23T09:24:49.035Z,55.52
2016-08-23T09:25:50.276Z,55.61
2016-08-23T09:26:52.376Z,55.62
2016-08-23T09:29:44.904Z,55.99
2016-08-23T09:31:40.316Z,56.14
2016-08-23T09:32:46.530Z,56.07
2016-08-23T09:33:52.309Z,56.21
2016-08-23T09:34:51.709Z,56.17
2016-08-23T09:36:18.224Z,56.23
2016-08-23T09:36:53.356Z,56.33
2016-08-23T09:38:54.305Z,56.37
2016-08-23T09:39:51.137Z,56.30
2016-08-23T09:40:44.169Z,56.42
2016-08-23T09:41:57.902Z,56.36
2016-08-23T09:42:43.938Z,56.47
2016-08-23T09:44:00.015Z,56.51
2016-08-23T09:44:43.281Z,56.48
2016-08-23T09:45:48.326Z,56.68
2016-08-23T09:46:34.744Z,56.73
2016-08-23T09:47:48.408Z,56.74
2016-08-23T09:48:53.870Z,56.72
2016-08-23T09:49:51.615Z,56.79
2016-08-23T09:50:54.209Z,56.77
2016-08-23T09:51:54.421Z,56.84
2016-08-23T09:52:30.460Z,56.90
2016-08-23T09:53:53.672Z,56.90
2016-08-23T09:54:54.614Z,56.86
2016-08-23T09:55:48.179Z,56.86
2016-08-23T09:56:58.762Z,56.91
2016-08-23T09:57:44.586Z,56.89
2016-08-23T09:58:41.268Z,56.98
2016-08-23T09:59:53.640Z,56.99
2016-08-23T10:00:57.617Z,56.93
2016-08-23T10:02:54.801Z,57.06
2016-08-23T10:03:06.165Z,57.28
2016-08-23T10:03:49.040Z,57.09
2016-08-23T10:05:53.694Z,56.25
2016-08-23T10:06:04.786Z,56.47
2016-08-23T10:06:56.379Z,56.23
2016-08-23T10:08:17.390Z,56.55
2016-08-23T10:10:49.107Z,56.92
2016-08-23T10:11:36.366Z,56.75
2016-08-23T10:12:44.725Z,57.07
2016-08-23T10:13:09.128Z,56.92
2016-08-23T10:14:05.087Z,56.96
2016-08-23T10:15:09.283Z,56.93
2016-08-23T10:16:00.275Z,56.79
2016-08-23T10:16:52.372Z,56.40
2016-08-23T10:17:36.624Z,56.62
2016-08-23T10:19:23.471Z,56.70
2016-08-23T10:20:03.876Z,56.66
2016-08-23T10:20:53.966Z,56.39
2016-08-23T10:21:38.527Z,56.53
2016-08-23T10:22:45.860Z,56.31
2016-08-23T10:23:50.969Z,56.20
2016-08-23T10:24:58.117Z,55.98
2016-08-23T10:25:53.330Z,56.02
2016-08-23T10:27:22.703Z,55.96
2016-08-23T10:27:59.868Z,55.53
2016-08-23T10:28:47.516Z,56.08
2016-08-23T10:29:50.894Z,55.69
2016-08-23T10:30:54.828Z,55.77
2016-08-23T10:32:05.320Z,55.77
2016-08-23T10:32:49.442Z,55.89
2016-08-23T10:33:42.678Z,55.57
2016-08-23T10:35:01.785Z,55.53
2016-08-23T10:35:52.312Z,55.71
2016-08-23T10:36:45.218Z,54.60
2016-08-23T10:37:51.572Z,55.05
2016-08-23T10:39:44.938Z,55.03
2016-08-23T10:40:22.732Z,55.43
2016-08-23T10:40:53.183Z,55.48
2016-08-23T10:41:54.619Z,55.39
2016-08-23T10:43:52.950Z,55.72
2016-08-23T10:44:09.056Z,55.85
2016-08-23T10:45:01.267Z,55.87
2016-08-23T10:46:57.245Z,56.36
2016-08-23T10:47:45.155Z,56.41
2016-08-23T10:48:56.163Z,55.93
2016-08-23T10:50:06.789Z,56.04
2016-08-23T10:51:47.944Z,56.00
2016-08-23T10:52:59.201Z,55.99
2016-08-23T10:53:50.925Z,55.77
2016-08-23T10:54:42.327Z,55.80
2016-08-23T10:55:52.681Z,56.14
2016-08-23T10:56:52.326Z,55.68
2016-08-23T10:57:44.332Z,55.88
2016-08-23T10:58:51.283Z,55.80
2016-08-23T10:59:44.602Z,55.96
2016-08-23T11:00:50.311Z,55.97
2016-08-23T11:01:41.617Z,56.03
2016-08-23T11:02:51.212Z,56.20
2016-08-23T11:03:57.111Z,55.67
2016-08-23T11:04:53.793Z,55.50
2016-08-23T11:05:45.691Z,56.05
2016-08-23T11:06:40.656Z,56.01
2016-08-23T11:07:51.057Z,56.05
2016-08-23T11:08:51.701Z,56.18
2016-08-23T11:09:45.782Z,56.17
2016-08-23T11:11:00.702Z,55.96
2016-08-23T11:11:43.431Z,56.23
2016-08-23T11:12:41.176Z,56.11
2016-08-23T11:13:51.995Z,56.02
2016-08-23T11:14:50.738Z,56.05
2016-08-23T11:15:51.644Z,55.81
2016-08-23T11:17:18.167Z,55.81
2016-08-23T11:17:58.212Z,56.11
2016-08-23T11:19:38.355Z,56.14
2016-08-23T11:19:49.257Z,55.73
2016-08-23T11:21:00.331Z,55.91
2016-08-23T11:22:24.491Z,56.09
2016-08-23T11:24:03.964Z,56.14
2016-08-23T11:24:52.440Z,55.88
2016-08-23T11:25:35.128Z,56.08
2016-08-23T11:25:50.020Z,56.06
2016-08-23T11:27:09.066Z,56.17
2016-08-23T11:28:04.396Z,56.12
2016-08-23T11:29:30.879Z,56.03
2016-08-23T11:30:03.392Z,56.04
2016-08-23T11:30:57.135Z,56.15
2016-08-23T11:31:53.343Z,55.84
2016-08-23T11:33:57.418Z,55.74
2016-08-23T11:34:21.204Z,56.07
2016-08-23T11:34:47.538Z,55.81
2016-08-23T11:36:18.857Z,55.56
2016-08-23T11:38:15.248Z,55.97
2016-08-23T11:38:44.074Z,55.95
2016-08-23T11:39:52.448Z,56.20
2016-08-23T11:41:53.253Z,56.10
2016-08-23T11:42:11.367Z,56.01
2016-08-23T11:43:47.413Z,56.25
2016-08-23T11:44:55.818Z,56.27
2016-08-23T11:45:48.849Z,56.13
2016-08-23T11:46:43.949Z,56.26
2016-08-23T11:47:45.400Z,56.28
2016-08-23T11:49:15.697Z,56.31
2016-08-23T11:49:52.668Z,56.17
2016-08-23T11:51:48.929Z,56.24
2016-08-23T11:51:51.748Z,56.18
2016-08-23T11:54:00.273Z,56.26
2016-08-23T11:54:48.978Z,56.38
2016-08-23T11:55:45.295Z,56.51
2016-08-23T11:56:51.118Z,56.45
2016-08-23T11:58:14.632Z,56.50
2016-08-23T11:58:55.167Z,56.54
2016-08-23T12:00:59.127Z,56.48
2016-08-23T12:02:47.318Z,56.52
2016-08-23T12:03:38.222Z,56.48
2016-08-23T12:04:23.842Z,56.65
2016-08-23T12:04:54.505Z,56.50
2016-08-23T12:05:51.213Z,56.72
2016-08-23T12:07:24.593Z,56.83
2016-08-23T12:09:21.053Z,56.77
2016-08-23T12:10:45.649Z,56.62
2016-08-23T12:10:51.913Z,56.53
2016-08-23T12:12:03.774Z,56.69
2016-08-23T12:13:23.253Z,56.68
2016-08-23T12:14:56.244Z,56.67
2016-08-23T12:15:51.324Z,56.56
2016-08-23T12:16:54.456Z,56.60
2016-08-23T12:17:58.540Z,56.79
2016-08-23T12:18:55.106Z,56.72
2016-08-23T12:20:12.752Z,56.72
2016-08-23T12:21:07.763Z,56.74
2016-08-23T12:22:05.583Z,56.74
2016-08-23T12:22:54.607Z,56.69
2016-08-23T12:23:58.692Z,56.72
2016-08-23T12:24:52.436Z,56.71
2016-08-23T12:26:18.145Z,56.83
2016-08-23T12:26:46.263Z,56.91
2016-08-23T12:27:44.436Z,57.04
2016-08-23T12:29:51.095Z,57.07
2016-08-23T12:31:00.883Z,57.11
2016-08-23T12:32:05.828Z,57.07
2016-08-23T12:33:56.952Z,57.07
2016-08-23T12:35:17.729Z,57.20
2016-08-23T12:36:20.206Z,57.27
2016-08-23T12:37:38.734Z,57.33
2016-08-23T12:38:58.647Z,57.53
2016-08-23T12:39:52.349Z,57.42
2016-08-23T12:40:08.459Z,57.40
2016-08-23T12:40:55.166Z,57.42
2016-08-23T12:41:41.173Z,57.59
2016-08-23T12:42:57.275Z,57.46
2016-08-23T12:44:03.540Z,57.48
2016-08-23T12:44:56.432Z,57.52
2016-08-23T12:45:53.483Z,57.25
2016-08-23T12:47:12.744Z,57.29
2016-08-23T12:49:05.395Z,57.52
2016-08-23T12:49:54.751Z,57.51
2016-08-23T12:51:04.171Z,57.47
2016-08-23T12:51:45.069Z,57.45
2016-08-23T12:53:01.957Z,57.54
2016-08-23T12:53:47.929Z,57.44
2016-08-23T12:54:59.025Z,57.22
2016-08-23T12:56:01.141Z,57.19
2016-08-23T12:56:49.898Z,57.17
2016-08-23T12:57:54.858Z,57.26
2016-08-23T12:58:49.007Z,57.22
2016-08-23T13:02:14.156Z,57.41
2016-08-23T13:05:53.133Z,57.25
2016-08-23T13:07:01.846Z,57.29
2016-08-23T13:07:06.636Z,57.39
2016-08-23T13:08:03.361Z,57.32
2016-08-23T13:08:46.117Z,57.32
2016-08-23T13:09:42.255Z,57.22
2016-08-23T13:10:46.139Z,57.46
2016-08-23T13:11:44.444Z,57.58
2016-08-23T13:12:42.216Z,57.77
2016-08-23T13:13:51.609Z,57.92
2016-08-23T13:14:43.274Z,57.63